Time;durP1;ratioP1;P1;durP2;ratioP2;P2;SDS_P1;SDS_P2;PMS_P1;PMS_P2;Temp;Humidity;BMP_temperature;BMP_pressure;BME280_temperature;BME280_humidity;BME280_pressure;Samples;Min_cycle;Max_cycle;Signal;HPM_P1;HPM_P2
2023/12/26 00:01:28;;;;;;;16.92;3.63;;;;;;;;;;6319529;22;20017;-90
2023/12/26 00:07:45;;;;;;;19.27;2.85;;;;;;;;;;6343267;22;20002;-88
2023/12/26 00:10:29;;;;;;;14.50;2.90;;;;;;;;;;6320003;22;20384;-89
2023/12/26 00:13:13;;;;;;;18.33;3.15;;;;;;;;;;6318609;22;20022;-88
2023/12/26 00:15:59;;;;;;;15.55;3.33;;;;;;;;;;6318533;22;20076;-91
2023/12/26 00:18:44;;;;;;;19.50;3.38;;;;;;;;;;6318542;22;20382;-88
2023/12/26 00:21:28;;;;;;;14.95;3.20;;;;;;;;;;6317425;22;20017;-90
2023/12/26 00:24:11;;;;;;;17.90;2.85;;;;;;;;;;6317460;22;20022;-89
2023/12/26 00:26:58;;;;;;;12.50;3.47;;;;;;;;;;6316751;22;20386;-89
2023/12/26 00:29:42;;;;;;;14.00;3.20;;;;;;;;;;6317022;22;20021;-89
2023/12/26 00:32:37;;;;;;;13.30;3.50;;;;;;;;;;6318817;22;20468;-91
2023/12/26 00:35:22;;;;;;;8.20;2.67;;;;;;;;;;6323105;22;20360;-90
2023/12/26 00:38:06;;;;;;;12.38;2.90;;;;;;;;;;6321229;22;20053;-91
2023/12/26 00:40:50;;;;;;;18.05;4.15;;;;;;;;;;6320380;22;20018;-91
2023/12/26 00:43:34;;;;;;;12.82;3.83;;;;;;;;;;6318723;22;20018;-89
2023/12/26 00:46:19;;;;;;;16.63;3.85;;;;;;;;;;6318908;22;20349;-91
2023/12/26 00:49:03;;;;;;;11.73;2.55;;;;;;;;;;6319611;22;20018;-90
2023/12/26 00:51:47;;;;;;;10.70;2.42;;;;;;;;;;6319089;22;20044;-90
2023/12/26 00:54:31;;;;;;;7.95;2.90;;;;;;;;;;6318602;22;20021;-90
2023/12/26 00:57:15;;;;;;;12.77;3.53;;;;;;;;;;6270594;22;20119;-90
2023/12/26 01:00:05;;;;;;;10.95;2.75;;;;;;;;;;6270184;22;20486;-90
2023/12/26 01:02:53;;;;;;;16.60;3.63;;;;;;;;;;6271731;22;20532;-87
2023/12/26 01:05:41;;;;;;;11.45;3.75;;;;;;;;;;6185920;23;20082;-90
2023/12/26 01:08:25;;;;;;;12.95;3.38;;;;;;;;;;6275506;22;20024;-89
2023/12/26 01:11:09;;;;;;;12.95;3.25;;;;;;;;;;6275097;22;20074;-89
2023/12/26 01:13:56;;;;;;;10.98;2.88;;;;;;;;;;6274062;22;20347;-90
2023/12/26 01:16:43;;;;;;;15.38;2.97;;;;;;;;;;6187130;23;20020;-91
2023/12/26 01:19:28;;;;;;;11.45;2.60;;;;;;;;;;6274961;22;20040;-89
2023/12/26 01:22:12;;;;;;;15.20;3.28;;;;;;;;;;6274266;22;20115;-90
2023/12/26 01:24:56;;;;;;;12.48;2.70;;;;;;;;;;6273786;22;20143;-90
2023/12/26 01:27:40;;;;;;;16.40;2.75;;;;;;;;;;6273863;22;20458;-90
2023/12/26 01:30:24;;;;;;;19.05;3.92;;;;;;;;;;6273679;22;20019;-87
2023/12/26 01:33:08;;;;;;;11.27;2.92;;;;;;;;;;6273950;22;20019;-89
2023/12/26 01:35:52;;;;;;;10.82;2.70;;;;;;;;;;6274199;22;20347;-89
2023/12/26 01:38:36;;;;;;;14.50;3.75;;;;;;;;;;6273760;22;20039;-89
2023/12/26 01:41:20;;;;;;;9.05;2.80;;;;;;;;;;6186171;23;20016;-88
2023/12/26 01:44:04;;;;;;;16.88;3.50;;;;;;;;;;6272557;22;20382;-88
2023/12/26 01:46:48;;;;;;;10.88;2.65;;;;;;;;;;6273102;22;20020;-89
2023/12/26 01:49:33;;;;;;;13.05;2.95;;;;;;;;;;6185534;23;20357;-89
2023/12/26 01:52:22;;;;;;;15.38;3.03;;;;;;;;;;6273009;22;20023;-90
2023/12/26 01:55:11;;;;;;;11.80;3.00;;;;;;;;;;6270180;22;20027;-89
2023/12/26 01:57:56;;;;;;;10.13;2.60;;;;;;;;;;6270288;22;20024;-89
2023/12/26 02:00:43;;;;;;;10.85;2.72;;;;;;;;;;6270821;22;20056;-89
2023/12/26 02:03:27;;;;;;;15.50;2.58;;;;;;;;;;6270984;22;20063;-89
2023/12/26 02:06:12;;;;;;;12.35;2.90;;;;;;;;;;6270562;22;20020;-87
2023/12/26 02:08:56;;;;;;;8.35;2.58;;;;;;;;;;6270938;22;20083;-89
2023/12/26 02:11:41;;;;;;;11.18;3.00;;;;;;;;;;6271259;22;20020;-89
2023/12/26 02:14:24;;;;;;;13.02;2.63;;;;;;;;;;6181973;23;20023;-90
2023/12/26 02:17:12;;;;;;;14.82;3.50;;;;;;;;;;6182878;23;20093;-87
2023/12/26 02:19:57;;;;;;;15.55;3.72;;;;;;;;;;6269977;22;20465;-88
2023/12/26 02:22:41;;;;;;;11.77;2.88;;;;;;;;;;6269544;22;20397;-86
2023/12/26 02:25:25;;;;;;;12.20;2.90;;;;;;;;;;6269343;22;20043;-88
2023/12/26 02:28:09;;;;;;;12.48;3.30;;;;;;;;;;6269948;22;20450;-87
2023/12/26 02:30:53;;;;;;;14.68;3.63;;;;;;;;;;6269820;22;20020;-89
2023/12/26 02:33:37;;;;;;;9.90;2.83;;;;;;;;;;6270388;22;20025;-88
2023/12/26 02:36:21;;;;;;;9.23;2.67;;;;;;;;;;6270574;22;20108;-87
2023/12/26 02:39:08;;;;;;;13.52;3.28;;;;;;;;;;6269889;22;20016;-88
2023/12/26 02:41:52;;;;;;;12.60;3.10;;;;;;;;;;6270266;22;20154;-88
2023/12/26 02:44:36;;;;;;;15.23;3.38;;;;;;;;;;6271097;22;20588;-88
2023/12/26 02:47:20;;;;;;;13.15;2.50;;;;;;;;;;6271427;22;20542;-89
2023/12/26 02:50:06;;;;;;;9.10;3.95;;;;;;;;;;6272546;22;20020;-90
2023/12/26 02:52:50;;;;;;;14.05;2.85;;;;;;;;;;6271100;22;20091;-88
2023/12/26 02:55:34;;;;;;;14.73;3.25;;;;;;;;;;6294072;22;20048;-89
2023/12/26 02:58:19;;;;;;;9.98;2.75;;;;;;;;;;6341330;22;20018;-90
2023/12/26 03:01:02;;;;;;;7.68;2.83;;;;;;;;;;6317168;22;20021;-87
2023/12/26 03:03:46;;;;;;;23.35;5.28;;;;;;;;;;6340598;22;20033;-92
2023/12/26 03:06:30;;;;;;;19.10;4.65;;;;;;;;;;6317650;22;20021;-90
2023/12/26 03:09:14;;;;;;;13.05;3.47;;;;;;;;;;6318100;22;20131;-88
2023/12/26 03:11:58;;;;;;;17.38;2.78;;;;;;;;;;6317773;22;20076;-88
2023/12/26 03:14:42;;;;;;;11.68;2.95;;;;;;;;;;6317163;22;20033;-90
2023/12/26 03:17:26;;;;;;;24.13;4.00;;;;;;;;;;6317094;22;20060;-89
2023/12/26 03:20:13;;;;;;;19.90;3.33;;;;;;;;;;6319022;22;20030;-89
2023/12/26 03:22:56;;;;;;;12.10;2.35;;;;;;;;;;6317530;22;20393;-90
2023/12/26 03:25:41;;;;;;;20.95;3.08;;;;;;;;;;6316689;22;20350;-87
2023/12/26 03:28:25;;;;;;;14.50;3.00;;;;;;;;;;6317154;22;20359;-88
2023/12/26 03:31:09;;;;;;;8.88;3.13;;;;;;;;;;6315612;22;20052;-88
2023/12/26 03:33:55;;;;;;;12.40;3.80;;;;;;;;;;6339379;22;20017;-89
2023/12/26 03:36:43;;;;;;;10.57;3.20;;;;;;;;;;6317370;22;20464;-90
2023/12/26 03:39:27;;;;;;;14.60;3.05;;;;;;;;;;6317212;22;20017;-89
2023/12/26 03:42:16;;;;;;;8.98;3.45;;;;;;;;;;6317423;22;20017;-90
2023/12/26 03:45:04;;;;;;;14.73;2.85;;;;;;;;;;6318106;22;20018;-87
2023/12/26 03:47:53;;;;;;;14.80;3.72;;;;;;;;;;6319732;22;20443;-88
2023/12/26 03:50:38;;;;;;;9.68;2.47;;;;;;;;;;6320008;22;20022;-88
2023/12/26 03:53:22;;;;;;;15.55;3.03;;;;;;;;;;6319686;22;20022;-89
2023/12/26 03:56:06;;;;;;;11.57;2.50;;;;;;;;;;6319447;22;20021;-88
2023/12/26 03:58:53;;;;;;;19.05;3.30;;;;;;;;;;6319958;22;20032;-88
2023/12/26 04:01:37;;;;;;;13.00;3.17;;;;;;;;;;6319849;22;20563;-89
2023/12/26 04:04:22;;;;;;;12.25;2.75;;;;;;;;;;6320393;22;20474;-89
2023/12/26 04:07:12;;;;;;;11.23;3.30;;;;;;;;;;6321113;22;20040;-90
2023/12/26 04:09:56;;;;;;;12.75;3.00;;;;;;;;;;6320426;22;20018;-89
2023/12/26 04:12:41;;;;;;;15.55;2.92;;;;;;;;;;6319410;22;20064;-90
2023/12/26 04:15:25;;;;;;;10.40;2.97;;;;;;;;;;6320285;22;20083;-88
2023/12/26 04:18:20;;;;;;;8.43;3.00;;;;;;;;;;6320383;22;20014;-87
2023/12/26 04:21:05;;;;;;;17.98;3.22;;;;;;;;;;6319826;22;20060;-91
2023/12/26 04:23:49;;;;;;;20.58;3.90;;;;;;;;;;6320572;22;20075;-90
2023/12/26 04:26:37;;;;;;;12.18;2.80;;;;;;;;;;6320562;22;20345;-90
2023/12/26 04:29:23;;;;;;;11.23;2.80;;;;;;;;;;6320127;22;20371;-88
2023/12/26 04:32:09;;;;;;;15.27;3.70;;;;;;;;;;6319401;22;20063;-89
2023/12/26 04:35:02;;;;;;;18.15;2.95;;;;;;;;;;6319931;22;20052;-91
2023/12/26 04:37:50;;;;;;;17.52;3.00;;;;;;;;;;6322609;22;20018;-89
2023/12/26 04:40:52;;;;;;;7.20;2.63;;;;;;;;;;6323983;22;20018;-89
2023/12/26 04:43:40;;;;;;;12.65;2.65;;;;;;;;;;6323504;22;20346;-89
2023/12/26 04:46:51;;;;;;;16.98;2.90;;;;;;;;;;6323330;22;20088;-89
2023/12/26 04:53:36;;;;;;;;;;;;;;;;;;;;;
2023/12/26 04:56:45;;;;;;;19.77;3.30;;;;;;;;;;6346011;22;20037;-89
2023/12/26 04:59:51;;;;;;;20.67;3.28;;;;;;;;;;6324361;22;20045;-90
2023/12/26 05:02:52;;;;;;;14.02;2.85;;;;;;;;;;6323382;22;20053;-90
2023/12/26 05:27:53;;;;;;;17.42;3.92;;;;;;;;;;6299204;22;20021;-88
2023/12/26 05:49:31;;;;;;;;;;;;;;;;;;;;;
2023/12/26 05:52:10;;;;;;;8.20;2.03;;;;;;;;;;6209017;23;20052;-88
2023/12/26 05:58:59;;;;;;;8.68;1.83;;;;;;;;;;6216224;23;20067;-89
2023/12/26 06:31:02;;;;;;;;;;;;;;;;;;;;;
2023/12/26 06:34:28;;;;;;;;;;;;;;;;;;;;;
2023/12/26 06:37:51;;;;;;;13.75;2.58;;;;;;;;;;6186340;23;20016;-89
2023/12/26 06:44:44;;;;;;;10.80;3.13;;;;;;;;;;6156706;23;20068;-89
2023/12/26 06:47:31;;;;;;;10.50;2.50;;;;;;;;;;6254617;22;20019;-88
2023/12/26 06:50:53;;;;;;;9.30;2.10;;;;;;;;;;6251472;22;20077;-89
2023/12/26 06:54:07;;;;;;;14.98;2.65;;;;;;;;;;6253733;22;20047;-88
2023/12/26 06:57:06;;;;;;;17.02;2.42;;;;;;;;;;6228870;23;20074;-88
2023/12/26 07:00:03;;;;;;;7.97;2.20;;;;;;;;;;6224581;23;20139;-88
2023/12/26 07:03:11;;;;;;;10.48;3.33;;;;;;;;;;6063177;23;20547;-89
2023/12/26 07:06:17;;;;;;;11.75;2.42;;;;;;;;;;6063820;23;20081;-89
2023/12/26 07:09:25;;;;;;;;;;;;;;;;;;;;;
2023/12/26 07:15:55;;;;;;;11.02;2.13;;;;;;;;;;6063775;23;20030;-90
2023/12/26 07:25:45;;;;;;;8.75;2.00;;;;;;;;;;6276032;22;20018;-88
2023/12/26 07:28:55;;;;;;;16.05;2.53;;;;;;;;;;6257589;22;20066;-89
2023/12/26 07:32:04;;;;;;;10.55;2.30;;;;;;;;;;6214493;23;20059;-88
2023/12/26 07:35:33;;;;;;;10.48;3.03;;;;;;;;;;6274985;22;20018;-90
2023/12/26 08:18:24;;;;;;;;;;;;;;;;;;;;;
2023/12/26 08:28:53;;;;;;;13.15;2.63;;;;;;;;;;6185961;22;20019;-86
2023/12/26 08:31:46;;;;;;;18.92;3.92;;;;;;;;;;6271650;22;20039;-90
2023/12/26 08:34:44;;;;;;;11.30;2.42;;;;;;;;;;6271461;22;20469;-87
2023/12/26 08:37:59;;;;;;;12.05;2.53;;;;;;;;;;6271528;22;20915;-88
2023/12/26 08:41:13;;;;;;;10.05;2.50;;;;;;;;;;6272427;22;20016;-88
2023/12/26 08:44:06;;;;;;;5.50;2.65;;;;;;;;;;6274267;22;20078;-88
2023/12/26 08:46:51;;;;;;;10.05;2.40;;;;;;;;;;6272419;22;20059;-88
2023/12/26 08:50:05;;;;;;;8.90;2.50;;;;;;;;;;6273562;22;20016;-88
2023/12/26 08:53:15;;;;;;;17.00;2.80;;;;;;;;;;6268386;22;20024;-90
2023/12/26 09:23:29;;;;;;;9.82;2.10;;;;;;;;;;6319149;22;20022;-89
2023/12/26 09:26:20;;;;;;;9.70;2.53;;;;;;;;;;6196301;22;20041;-89
2023/12/26 09:32:50;;;;;;;8.13;2.67;;;;;;;;;;6319941;22;20026;-91
2023/12/26 09:35:35;;;;;;;7.07;2.42;;;;;;;;;;6197186;22;20308;-87
2023/12/26 09:49:12;;;;;;;6.38;1.95;;;;;;;;;;6324501;22;20082;-89
2023/12/26 09:52:10;;;;;;;3.10;1.80;;;;;;;;;;6191349;22;20127;-89
2023/12/26 09:54:56;;;;;;;2.70;1.88;;;;;;;;;;6166029;22;20074;-89
2023/12/26 10:04:48;;;;;;;5.70;2.05;;;;;;;;;;6314829;22;20010;-91
2023/12/26 10:07:33;;;;;;;6.88;2.13;;;;;;;;;;6193526;22;20024;-88
2023/12/26 10:13:58;;;;;;;7.57;1.90;;;;;;;;;;6315718;22;20050;-89
2023/12/26 10:16:47;;;;;;;6.07;2.17;;;;;;;;;;6184581;22;20033;-88
2023/12/26 10:34:50;;;;;;;7.57;2.47;;;;;;;;;;6318571;22;20568;-89
2023/12/26 10:51:21;;;;;;;4.75;2.33;;;;;;;;;;6309137;22;19929;-90
2023/12/26 11:22:52;;;;;;;6.57;2.10;;;;;;;;;;6314200;22;20007;-90
2023/12/26 11:29:32;;;;;;;2.70;1.73;;;;;;;;;;6305611;22;20045;-89
2023/12/26 11:50:48;;;;;;;4.57;2.10;;;;;;;;;;6277208;22;20010;-91
2023/12/26 11:57:24;;;;;;;6.22;2.30;;;;;;;;;;6279142;22;20042;-89
2023/12/26 12:11:18;;;;;;;12.95;7.88;;;;;;;;;;6310728;22;20006;-87
2023/12/26 12:17:12;;;;;;;8.48;3.17;;;;;;;;;;6182133;22;20280;-86
2023/12/26 12:20:07;;;;;;;5.43;2.03;;;;;;;;;;6164518;23;20016;-89
2023/12/26 13:10:00;;;;;;;6.78;2.10;;;;;;;;;;6185277;23;20016;-87
2023/12/26 13:30:58;;;;;;;9.25;2.70;;;;;;;;;;6184027;23;20466;-86
2023/12/26 13:37:51;;;;;;;10.77;2.90;;;;;;;;;;6186018;23;20462;-89
2023/12/26 13:59:28;;;;;;;;;;;;;;;;;;;;;
2023/12/26 14:46:17;;;;;;;7.60;4.32;;;;;;;;;;6182352;23;20034;-91
2023/12/26 14:49:02;;;;;;;7.47;3.17;;;;;;;;;;6160609;23;20058;-87
2023/12/26 14:51:49;;;;;;;7.93;3.67;;;;;;;;;;6160637;23;20016;-88
2023/12/26 14:54:33;;;;;;;27.30;14.05;;;;;;;;;;6161621;23;20067;-87
2023/12/26 15:01:17;;;;;;;48.83;25.63;;;;;;;;;;6182936;23;20069;-88
2023/12/26 15:04:01;;;;;;;14.98;6.63;;;;;;;;;;6183408;23;20089;-87
2023/12/26 15:06:45;;;;;;;29.58;14.48;;;;;;;;;;6161333;23;20130;-89
2023/12/26 15:09:29;;;;;;;36.78;18.80;;;;;;;;;;6161476;23;20517;-87
2023/12/26 15:12:16;;;;;;;16.90;7.22;;;;;;;;;;6160612;23;20032;-88
2023/12/26 15:15:03;;;;;;;34.28;21.02;;;;;;;;;;6161068;23;20052;-87
2023/12/26 15:17:47;;;;;;;20.52;11.73;;;;;;;;;;6160795;23;20020;-88
2023/12/26 15:20:31;;;;;;;14.70;7.43;;;;;;;;;;6160810;23;20399;-88
2023/12/26 15:23:15;;;;;;;17.02;6.28;;;;;;;;;;6161024;23;20393;-89
2023/12/26 15:25:59;;;;;;;13.80;6.07;;;;;;;;;;6159988;23;20062;-87
2023/12/26 15:28:45;;;;;;;8.27;5.97;;;;;;;;;;6159940;23;20020;-88
2023/12/26 15:31:31;;;;;;;16.33;9.57;;;;;;;;;;6161521;23;20024;-86
2023/12/26 15:34:15;;;;;;;16.45;10.30;;;;;;;;;;6160446;23;20024;-90
2023/12/26 15:36:59;;;;;;;15.32;9.40;;;;;;;;;;6160172;23;20043;-88
2023/12/26 15:39:46;;;;;;;18.70;10.07;;;;;;;;;;6160688;23;20427;-88
2023/12/26 15:42:30;;;;;;;34.38;14.93;;;;;;;;;;6162856;23;20071;-88
2023/12/26 15:45:21;;;;;;;22.00;8.15;;;;;;;;;;6159848;23;20024;-87
2023/12/26 15:48:06;;;;;;;12.13;5.25;;;;;;;;;;6159716;23;20398;-87
2023/12/26 15:50:50;;;;;;;12.52;4.30;;;;;;;;;;6159701;23;20198;-88
2023/12/26 15:53:34;;;;;;;10.50;5.00;;;;;;;;;;6162456;23;20027;-88
2023/12/26 15:56:28;;;;;;;10.02;4.53;;;;;;;;;;6162360;23;20020;-90
2023/12/26 15:59:12;;;;;;;17.85;6.78;;;;;;;;;;6161845;23;20020;-89
2023/12/26 16:01:56;;;;;;;23.73;13.80;;;;;;;;;;6162856;23;20472;-89
2023/12/26 16:04:40;;;;;;;19.77;10.98;;;;;;;;;;6161571;23;20020;-90
2023/12/26 16:07:25;;;;;;;22.00;9.02;;;;;;;;;;6161597;23;20023;-88
2023/12/26 16:10:14;;;;;;;12.68;6.80;;;;;;;;;;6162023;23;20024;-88
2023/12/26 16:13:00;;;;;;;13.60;7.15;;;;;;;;;;6151886;23;20466;-89
2023/12/26 16:15:44;;;;;;;11.38;6.18;;;;;;;;;;6153218;23;20020;-85
2023/12/26 16:18:29;;;;;;;14.18;6.10;;;;;;;;;;6153004;23;20021;-86
2023/12/26 16:21:13;;;;;;;18.50;6.82;;;;;;;;;;6150131;23;20356;-86
2023/12/26 16:23:57;;;;;;;14.15;8.82;;;;;;;;;;6151739;23;20151;-90
2023/12/26 16:26:46;;;;;;;17.95;11.45;;;;;;;;;;6150814;23;20020;-88
2023/12/26 16:29:30;;;;;;;20.60;12.52;;;;;;;;;;6150922;23;20025;-88
2023/12/26 16:32:14;;;;;;;17.90;10.32;;;;;;;;;;6151115;23;20055;-87
2023/12/26 16:35:04;;;;;;;51.70;31.00;;;;;;;;;;6152523;23;20071;-89
2023/12/26 16:37:48;;;;;;;31.30;18.92;;;;;;;;;;6153879;23;20046;-89
2023/12/26 16:40:32;;;;;;;27.23;12.88;;;;;;;;;;6154906;23;20143;-88
2023/12/26 16:43:19;;;;;;;20.77;11.93;;;;;;;;;;6155364;23;20025;-89
2023/12/26 16:46:07;;;;;;;26.42;14.68;;;;;;;;;;6156603;23;20024;-89
2023/12/26 16:48:51;;;;;;;30.02;15.82;;;;;;;;;;6156612;23;20070;-88
2023/12/26 16:51:36;;;;;;;22.00;13.85;;;;;;;;;;6156662;23;20354;-89
2023/12/26 16:54:20;;;;;;;17.17;9.57;;;;;;;;;;6157977;23;20336;-89
2023/12/26 16:57:04;;;;;;;15.63;10.32;;;;;;;;;;6154670;23;20021;-87
2023/12/26 16:59:49;;;;;;;23.10;13.60;;;;;;;;;;6151575;23;20021;-86
2023/12/26 17:02:33;;;;;;;16.55;10.88;;;;;;;;;;6151443;23;20021;-87
2023/12/26 17:05:16;;;;;;;18.35;10.23;;;;;;;;;;6153105;23;20024;-88
2023/12/26 17:08:04;;;;;;;19.35;10.05;;;;;;;;;;6152012;23;20024;-88
2023/12/26 17:10:47;;;;;;;14.93;9.57;;;;;;;;;;6152640;23;20067;-89
2023/12/26 17:13:32;;;;;;;16.27;9.93;;;;;;;;;;6151029;23;20466;-83
2023/12/26 17:16:16;;;;;;;22.95;11.75;;;;;;;;;;6159059;23;20036;-89
2023/12/26 17:19:03;;;;;;;19.02;11.43;;;;;;;;;;6156909;23;20047;-88
2023/12/26 17:21:58;;;;;;;19.77;12.02;;;;;;;;;;6156198;23;20020;-89
2023/12/26 17:25:05;;;;;;;19.42;12.75;;;;;;;;;;6160321;23;20100;-89
2023/12/26 17:27:51;;;;;;;25.45;16.33;;;;;;;;;;6159509;23;20036;-88
2023/12/26 17:30:36;;;;;;;25.55;16.90;;;;;;;;;;6161076;23;20070;-88
2023/12/26 17:33:23;;;;;;;42.03;23.25;;;;;;;;;;6159426;23;20070;-89
2023/12/26 17:36:10;;;;;;;49.60;24.88;;;;;;;;;;6154758;23;20072;-89
2023/12/26 17:38:59;;;;;;;44.70;25.98;;;;;;;;;;6152717;23;20021;-88
2023/12/26 17:41:43;;;;;;;44.45;22.50;;;;;;;;;;6155969;23;20078;-87
2023/12/26 17:44:29;;;;;;;50.88;23.58;;;;;;;;;;6153455;23;20043;-87
2023/12/26 17:54:06;;;;;;;36.58;21.48;;;;;;;;;;6161582;23;19958;-89
2023/12/26 17:56:51;;;;;;;37.65;21.35;;;;;;;;;;6154913;23;20025;-89
2023/12/26 17:59:38;;;;;;;27.52;14.35;;;;;;;;;;6153707;23;20099;-87
2023/12/26 18:02:40;;;;;;;29.33;19.80;;;;;;;;;;6156375;23;20101;-89
2023/12/26 18:05:24;;;;;;;30.42;15.88;;;;;;;;;;6152561;23;20021;-89
2023/12/26 18:08:20;;;;;;;28.45;15.02;;;;;;;;;;6154503;23;20043;-88
2023/12/26 18:11:07;;;;;;;31.80;16.50;;;;;;;;;;6151679;23;20067;-88
2023/12/26 18:17:30;;;;;;;35.38;17.95;;;;;;;;;;6155797;23;20035;-91
2023/12/26 18:20:32;;;;;;;30.73;17.20;;;;;;;;;;6156988;23;20061;-89
2023/12/26 18:23:17;;;;;;;30.48;16.70;;;;;;;;;;6154416;23;20289;-89
2023/12/26 18:26:07;;;;;;;34.10;20.00;;;;;;;;;;6154776;23;20108;-88
2023/12/26 18:28:55;;;;;;;30.70;14.98;;;;;;;;;;6154229;23;20020;-88
2023/12/26 18:31:42;;;;;;;23.35;13.38;;;;;;;;;;6154278;23;20017;-88
2023/12/26 18:34:39;;;;;;;44.97;23.75;;;;;;;;;;6154491;23;20020;-89
2023/12/26 18:40:51;;;;;;;32.90;19.23;;;;;;;;;;6153952;23;20004;-87
2023/12/26 18:43:38;;;;;;;42.67;20.30;;;;;;;;;;6156905;23;20040;-90
2023/12/26 18:50:05;;;;;;;29.35;13.98;;;;;;;;;;6154371;23;20159;-88
2023/12/26 18:52:49;;;;;;;28.77;16.95;;;;;;;;;;6153088;23;20056;-87
2023/12/26 18:55:39;;;;;;;24.95;15.32;;;;;;;;;;6151460;23;20021;-90
2023/12/26 18:58:31;;;;;;;29.90;14.30;;;;;;;;;;6151958;23;20043;-88
2023/12/26 19:08:39;;;;;;;27.15;12.98;;;;;;;;;;6155228;23;20043;-87
2023/12/26 19:11:24;;;;;;;30.65;13.40;;;;;;;;;;6159360;23;20024;-88
2023/12/26 19:14:11;;;;;;;28.42;12.25;;;;;;;;;;6161845;23;20024;-88
2023/12/26 19:17:02;;;;;;;30.00;14.20;;;;;;;;;;6164201;23;20020;-89
2023/12/26 19:19:49;;;;;;;44.08;20.60;;;;;;;;;;6164328;23;20408;-90
2023/12/26 19:26:17;;;;;;;34.95;16.48;;;;;;;;;;6186421;23;20015;-83
2023/12/26 19:29:02;;;;;;;61.97;27.35;;;;;;;;;;6188427;23;20355;-88
2023/12/26 19:31:52;;;;;;;37.90;19.33;;;;;;;;;;6167503;23;20020;-90
2023/12/26 19:38:08;;;;;;;36.45;17.55;;;;;;;;;;6192922;23;20020;-90
2023/12/26 19:41:25;;;;;;;51.38;23.73;;;;;;;;;;6171915;23;20338;-88
2023/12/26 19:44:25;;;;;;;26.63;13.70;;;;;;;;;;6166871;23;20515;-89
2023/12/26 19:54:21;;;;;;;23.30;11.85;;;;;;;;;;6192978;23;20050;-90
2023/12/26 19:57:13;;;;;;;20.58;10.85;;;;;;;;;;6169039;23;20021;-90
2023/12/26 19:59:58;;;;;;;20.80;10.93;;;;;;;;;;6170399;23;20142;-89
2023/12/26 20:03:21;;;;;;;16.50;10.90;;;;;;;;;;6172008;23;20024;-91
2023/12/26 20:12:56;;;;;;;33.05;18.73;;;;;;;;;;6189090;23;19938;-88
2023/12/26 20:19:18;;;;;;;21.10;10.68;;;;;;;;;;6185310;23;20012;-88
2023/12/26 20:26:17;;;;;;;32.83;13.95;;;;;;;;;;6187614;23;20512;-87
2023/12/26 20:29:33;;;;;;;23.20;12.30;;;;;;;;;;6165558;23;20039;-88
2023/12/26 20:39:54;;;;;;;21.75;10.85;;;;;;;;;;6186008;23;20067;-87
2023/12/26 20:49:54;;;;;;;18.85;10.70;;;;;;;;;;6185136;23;20032;-87
2023/12/26 20:52:39;;;;;;;19.38;11.40;;;;;;;;;;6162847;23;20078;-88
2023/12/26 20:55:24;;;;;;;23.30;12.43;;;;;;;;;;6164802;23;20031;-90
2023/12/26 21:35:05;;;;;;;;;;;;;;;;;;;;;
2023/12/26 21:38:10;;;;;;;68.25;34.20;;;;;;;;;;6155166;23;20096;-88
2023/12/26 21:41:40;;;;;;;;;;;;;;;;;;;;;
2023/12/26 21:44:57;;;;;;;130.43;56.47;;;;;;;;;;6156407;23;20025;-89
2023/12/26 21:48:28;;;;;;;93.75;42.80;;;;;;;;;;6134420;23;20025;-88
2023/12/26 21:51:37;;;;;;;62.92;37.20;;;;;;;;;;6154999;23;20486;-87
2023/12/26 22:34:35;;;;;;;50.65;26.65;;;;;;;;;;6036422;23;20026;-91
2023/12/26 22:37:37;;;;;;;;;;;;;;;;;;;;;
2023/12/26 22:40:28;;;;;;;41.83;25.15;;;;;;;;;;6093383;23;20018;-85
2023/12/26 22:43:24;;;;;;;;;;;;;;;;;;;;;
2023/12/26 22:46:29;;;;;;;45.95;24.95;;;;;;;;;;6093966;23;20045;-89
2023/12/26 22:49:42;;;;;;;;;;;;;;;;;;;;;
2023/12/26 22:52:29;;;;;;;34.45;22.50;;;;;;;;;;6153590;23;20063;-89
2023/12/26 23:06:37;;;;;;;45.78;25.48;;;;;;;;;;6153463;23;20070;-89
2023/12/26 23:13:50;;;;;;;45.90;26.27;;;;;;;;;;6153673;23;20016;-89
2023/12/26 23:20:21;;;;;;;40.25;24.92;;;;;;;;;;6153330;23;20036;-88
2023/12/26 23:23:23;;;;;;;42.83;24.88;;;;;;;;;;6121175;23;20048;-87
2023/12/26 23:37:45;;;;;;;40.75;23.10;;;;;;;;;;6121645;23;20020;-88
2023/12/26 23:51:37;;;;;;;35.20;21.77;;;;;;;;;;6122721;23;20364;-90
2023/12/26 23:58:14;;;;;;;;;;;;;;;;;;;;;
